Time;durP1;ratioP1;P1;durP2;ratioP2;P2;SDS_P1;SDS_P2;PMS_P1;PMS_P2;Temp;Humidity;BMP_temperature;BMP_pressure;BME280_temperature;BME280_humidity;BME280_pressure;Samples;Min_cycle;Max_cycle;Signal;HPM_P1;HPM_P2
2022/08/17 00:01:00;;;;;;;9.55;8.95;;;17.20;99.90;;;18.13;79.54;97339.25;5187791;28;20209;-77
2022/08/17 00:03:37;;;;;;;9.65;8.85;;;17.20;99.90;;;18.14;78.99;97343.56;5193926;28;20599;-76
2022/08/17 00:06:18;;;;;;;9.73;9.02;;;17.30;99.90;;;18.09;79.16;97340.03;5184792;28;20230;-76
2022/08/17 00:08:56;;;;;;;9.48;8.68;;;17.20;99.90;;;18.05;79.35;97343.41;5187865;28;20260;-76
2022/08/17 00:11:35;;;;;;;9.85;9.02;;;17.10;99.90;;;18.02;78.99;97333.84;5179686;28;20230;-77
2022/08/17 00:14:12;;;;;;;9.20;8.50;;;17.00;99.90;;;17.98;79.76;97335.53;5191209;28;20218;-77
2022/08/17 00:16:49;;;;;;;9.05;8.30;;;17.00;99.90;;;17.96;79.52;97337.19;5186789;28;20345;-77
2022/08/17 00:19:31;;;;;;;9.35;8.63;;;17.00;99.90;;;17.90;79.48;97339.66;5184108;28;20218;-77
2022/08/17 00:22:06;;;;;;;9.57;8.77;;;17.00;99.90;;;17.88;80.15;97338.75;5190823;28;20210;-77
2022/08/17 00:25:00;;;;;;;9.75;9.05;;;16.90;99.90;;;17.89;79.96;97332.75;5186191;28;20230;-77
2022/08/17 00:27:34;;;;;;;10.02;9.30;;;17.00;99.90;;;17.86;79.88;97324.94;5193380;28;20232;-78
2022/08/17 00:30:11;;;;;;;9.43;8.73;;;16.90;99.90;;;17.81;80.55;97321.41;5195351;28;20289;-77
2022/08/17 00:32:47;;;;;;;9.20;8.50;;;16.90;99.90;;;17.80;80.90;97324.84;5196079;28;20241;-76
2022/08/17 00:35:42;;;;;;;10.00;9.10;;;16.80;99.90;;;17.81;80.57;97316.22;5187724;28;20206;-76
2022/08/17 00:38:16;;;;;;;8.45;7.88;;;16.80;99.90;;;17.64;80.44;97310.69;5188400;28;20696;-77
2022/08/17 00:40:54;;;;;;;9.77;9.07;;;16.60;99.90;;;17.59;80.23;97324.34;5189036;28;20194;-77
2022/08/17 00:43:36;;;;;;;9.68;8.98;;;16.50;99.90;;;17.51;80.14;97324.19;5178800;28;20352;-76
2022/08/17 00:46:14;;;;;;;8.82;8.13;;;16.50;99.90;;;17.48;80.39;97322.44;5188049;28;20286;-76
2022/08/17 00:48:48;;;;;;;8.55;7.95;;;16.50;99.90;;;17.48;80.13;97319.84;5193598;28;20202;-76
2022/08/17 00:51:31;;;;;;;8.70;8.10;;;16.60;99.90;;;17.51;81.33;97319.91;5182976;28;20230;-77
2022/08/17 00:54:10;;;;;;;9.05;8.35;;;16.60;99.90;;;17.55;81.36;97323.41;5188784;28;20341;-77
2022/08/17 00:56:50;;;;;;;9.23;8.52;;;16.60;99.90;;;17.54;81.48;97325.13;5182073;28;20739;-76
2022/08/17 00:59:29;;;;;;;9.32;8.63;;;16.60;99.90;;;17.49;82.05;97313.81;5192316;28;20276;-77
2022/08/17 01:02:05;;;;;;;9.10;8.40;;;16.60;99.90;;;17.45;81.96;97312.00;5192204;28;20242;-77
2022/08/17 01:04:39;;;;;;;9.30;8.60;;;16.60;99.90;;;17.41;81.79;97306.75;5187541;28;20244;-77
2022/08/17 01:07:13;;;;;;;9.10;8.40;;;16.50;99.90;;;17.37;81.65;97312.69;5189701;28;20244;-77
2022/08/17 01:09:47;;;;;;;9.57;8.88;;;16.50;99.90;;;17.39;81.82;97309.28;5185282;28;20241;-76
2022/08/17 01:12:22;;;;;;;9.68;8.88;;;16.50;99.90;;;17.44;81.62;97310.25;5193444;28;20233;-76
2022/08/17 01:14:55;;;;;;;9.45;8.75;;;16.50;99.90;;;17.46;81.02;97311.19;5182739;28;20261;-77
2022/08/17 01:17:28;;;;;;;10.45;9.65;;;16.50;99.90;;;17.48;81.18;97314.69;5185911;28;20202;-77
2022/08/17 01:20:02;;;;;;;9.90;9.10;;;16.60;99.90;;;17.49;80.76;97316.41;5187481;28;20250;-77
2022/08/17 01:22:37;;;;;;;9.52;8.68;;;16.60;99.90;;;17.50;80.49;97312.97;5192023;28;20244;-76
2022/08/17 01:25:12;;;;;;;10.13;9.43;;;16.70;99.90;;;17.54;79.40;97314.81;5189949;28;20249;-77
2022/08/17 01:27:45;;;;;;;9.57;8.77;;;16.60;99.90;;;17.51;80.21;97304.41;5179372;28;20515;-76
2022/08/17 01:30:19;;;;;;;9.82;9.15;;;16.60;99.90;;;17.51;80.34;97309.56;5188381;28;20219;-77
2022/08/17 01:33:12;;;;;;;8.75;8.13;;;16.70;99.90;;;17.48;80.34;97301.75;5186594;28;20203;-77
2022/08/17 01:35:45;;;;;;;9.55;8.75;;;16.70;99.90;;;17.49;79.90;97303.50;5188397;28;20537;-77
2022/08/17 01:38:19;;;;;;;9.45;8.75;;;16.60;99.90;;;17.47;80.90;97307.75;5190211;28;20230;-77
2022/08/17 01:41:03;;;;;;;10.05;9.23;;;16.60;99.90;;;17.48;80.44;97299.16;5191438;28;20201;-77
2022/08/17 01:43:42;;;;;;;9.82;9.15;;;16.60;99.90;;;17.43;80.12;97302.50;5187590;28;20254;-77
2022/08/17 01:46:23;;;;;;;9.55;8.85;;;16.60;99.90;;;17.40;80.64;97295.56;5186366;28;20684;-77
2022/08/17 01:48:57;;;;;;;9.73;8.93;;;16.50;99.90;;;17.40;81.01;97295.56;5186047;28;20222;-77
2022/08/17 01:51:32;;;;;;;9.20;8.50;;;16.50;99.90;;;17.37;80.93;97295.50;5192893;28;20685;-77
2022/08/17 01:54:11;;;;;;;8.57;8.02;;;16.50;99.90;;;17.35;80.62;97297.16;5188221;28;20284;-75
2022/08/17 01:56:50;;;;;;;8.95;8.25;;;16.40;99.90;;;17.30;80.58;97299.63;5188264;28;20693;-77
2022/08/17 01:59:23;;;;;;;8.57;7.90;;;16.40;99.90;;;17.27;80.73;97303.88;5191874;28;20696;-77
2022/08/17 02:01:56;;;;;;;9.30;8.50;;;16.40;99.90;;;17.20;81.15;97291.69;5186191;28;20255;-76
2022/08/17 02:04:30;;;;;;;9.05;8.30;;;16.30;99.90;;;17.19;81.33;97306.28;5188446;28;20234;-77
2022/08/17 02:07:04;;;;;;;8.88;8.23;;;16.40;99.90;;;17.18;81.62;97307.13;5186254;28;20199;-77
2022/08/17 02:09:38;;;;;;;8.50;7.80;;;16.30;99.90;;;17.13;80.92;97298.41;5187903;28;20234;-77
2022/08/17 02:12:14;;;;;;;9.23;8.43;;;16.30;99.90;;;17.10;81.05;97298.31;5190240;28;20190;-76
2022/08/17 02:15:11;;;;;;;9.90;9.00;;;16.20;99.90;;;17.03;81.99;97294.75;5190447;28;20230;-77
2022/08/17 02:17:44;;;;;;;9.13;8.52;;;16.20;99.90;;;17.02;81.44;97298.16;5182882;28;20210;-76
2022/08/17 02:20:18;;;;;;;9.55;8.68;;;16.20;99.90;;;16.99;82.35;97295.50;5189732;28;20288;-77
2022/08/17 02:23:13;;;;;;;9.60;8.80;;;16.10;99.90;;;16.95;82.64;97295.41;5182794;28;20217;-77
2022/08/17 02:25:48;;;;;;;9.60;8.80;;;16.10;99.90;;;16.97;82.35;97292.03;5184130;28;20205;-77
2022/08/17 02:28:21;;;;;;;9.73;9.00;;;16.10;99.90;;;16.95;82.76;97292.84;5193296;28;20265;-76
2022/08/17 02:30:55;;;;;;;9.43;8.73;;;16.10;99.90;;;16.94;83.10;97293.66;5178825;28;20317;-77
2022/08/17 02:33:35;;;;;;;10.50;9.52;;;16.10;99.90;;;16.87;82.81;97292.63;5185973;28;20244;-77
2022/08/17 02:36:15;;;;;;;9.73;9.02;;;16.00;99.90;;;16.88;82.99;97290.13;5183470;28;20202;-77
2022/08/17 02:38:48;;;;;;;9.43;8.73;;;16.00;99.90;;;16.91;83.73;97294.44;5182227;28;20206;-76
2022/08/17 02:41:23;;;;;;;10.35;9.45;;;16.00;99.90;;;16.96;83.27;97292.84;5177258;28;20234;-77
2022/08/17 02:43:56;;;;;;;10.40;9.60;;;16.10;99.90;;;16.90;82.94;97284.97;5185388;28;20364;-76
2022/08/17 02:46:30;;;;;;;9.80;9.10;;;16.00;99.90;;;16.87;82.78;97297.81;5191895;28;20198;-76
2022/08/17 02:49:05;;;;;;;9.27;8.60;;;15.90;99.90;;;16.78;82.23;97293.31;5189512;28;20253;-77
2022/08/17 02:51:38;;;;;;;9.68;8.95;;;15.90;99.90;;;16.75;83.20;97294.91;5174817;28;20664;-77
2022/08/17 02:54:11;;;;;;;9.52;8.82;;;15.90;99.90;;;16.77;83.22;97295.84;5187992;28;20219;-76
2022/08/17 02:57:06;;;;;;;9.65;8.85;;;15.90;99.90;;;16.70;83.43;97301.66;5187837;28;20285;-77
2022/08/17 02:59:40;;;;;;;8.98;8.20;;;15.80;99.90;;;16.69;83.18;97302.50;5187196;28;20323;-77
2022/08/17 03:02:20;;;;;;;9.70;9.10;;;15.80;99.90;;;16.65;83.34;97310.19;5184068;28;20198;-77
2022/08/17 03:04:53;;;;;;;9.27;8.68;;;15.80;99.90;;;16.64;83.10;97311.00;5185468;28;20317;-76
2022/08/17 03:07:27;;;;;;;9.38;8.68;;;15.70;99.90;;;16.62;83.33;97311.78;5184027;28;20202;-76
2022/08/17 03:10:00;;;;;;;9.30;8.60;;;15.70;99.90;;;16.59;83.49;97306.56;5185829;28;20253;-77
2022/08/17 03:12:38;;;;;;;9.60;8.88;;;15.60;99.90;;;16.50;84.11;97307.22;5189337;28;20201;-76
2022/08/17 03:15:16;;;;;;;10.13;9.23;;;15.60;99.90;;;16.49;84.29;97300.31;5181307;28;20316;-77
2022/08/17 03:17:50;;;;;;;9.25;8.38;;;15.60;99.90;;;16.46;84.38;97302.81;5189456;28;20220;-76
2022/08/17 03:20:28;;;;;;;9.25;8.55;;;15.60;99.90;;;16.50;84.03;97312.38;5188263;28;20225;-77
2022/08/17 03:23:01;;;;;;;9.25;8.43;;;15.50;99.90;;;16.43;84.04;97302.75;5185775;28;20280;-77
2022/08/17 03:25:39;;;;;;;9.60;8.88;;;15.50;99.90;;;16.31;85.06;97310.16;5186784;28;20214;-76
2022/08/17 03:28:16;;;;;;;10.98;10.13;;;15.40;99.90;;;16.34;84.66;97320.53;5189334;28;20217;-76
2022/08/17 03:30:50;;;;;;;9.57;8.88;;;15.50;99.90;;;16.31;84.30;97315.31;5187961;28;20280;-76
2022/08/17 03:33:24;;;;;;;9.68;8.98;;;15.40;99.90;;;16.27;84.83;97321.25;5181223;28;20226;-77
2022/08/17 03:35:58;;;;;;;9.75;8.95;;;15.40;99.90;;;16.27;84.92;97314.38;5183267;28;20655;-77
2022/08/17 03:38:32;;;;;;;9.65;8.85;;;15.40;99.90;;;16.33;84.88;97318.81;5182197;28;20285;-77
2022/08/17 03:41:12;;;;;;;10.00;9.30;;;15.40;99.90;;;16.28;85.32;97326.44;5179431;28;20685;-77
2022/08/17 03:43:47;;;;;;;9.75;8.95;;;15.40;99.90;;;16.25;85.58;97317.72;5184275;28;20272;-77
2022/08/17 03:58:09;;;;;;;10.10;9.40;;;15.30;99.90;;;16.18;85.37;97317.59;5122833;28;20247;-76
2022/08/17 04:00:45;;;;;;;10.38;9.60;;;15.40;99.90;;;16.18;85.78;97319.28;5177130;28;20318;-76
2022/08/17 04:03:18;;;;;;;9.55;8.85;;;15.30;99.90;;;16.13;85.80;97314.00;5189418;28;20280;-77
2022/08/17 04:05:51;;;;;;;10.23;9.52;;;15.30;99.90;;;16.04;85.71;97310.31;5187923;28;20229;-76
2022/08/17 04:08:24;;;;;;;10.27;9.38;;;15.20;99.90;;;16.10;85.92;97313.06;5185323;28;20831;-77
2022/08/17 04:10:59;;;;;;;9.55;8.75;;;15.30;99.90;;;16.08;86.15;97322.44;5193424;28;20240;-77
2022/08/17 04:13:32;;;;;;;10.20;9.43;;;15.20;99.90;;;16.10;86.29;97326.81;5179878;28;20318;-76
2022/08/17 04:16:07;;;;;;;11.02;10.25;;;15.20;99.90;;;16.12;86.09;97327.75;5186372;28;20249;-76
2022/08/17 04:18:40;;;;;;;10.35;9.45;;;15.20;99.90;;;16.02;86.37;97330.03;5189737;28;20272;-76
2022/08/17 04:21:13;;;;;;;9.95;9.25;;;15.20;99.90;;;16.01;86.48;97336.88;5186552;28;20226;-77
2022/08/17 04:23:47;;;;;;;10.00;9.30;;;15.10;99.90;;;16.03;86.60;97340.38;5184406;28;20259;-77
2022/08/17 04:26:21;;;;;;;9.93;9.23;;;15.20;99.90;;;16.04;86.89;97336.97;5182463;28;20250;-77
2022/08/17 04:29:15;;;;;;;10.52;9.70;;;15.20;99.90;;;16.03;86.44;97331.78;5188227;28;20657;-77
2022/08/17 04:31:50;;;;;;;10.15;9.45;;;15.20;99.90;;;16.06;86.76;97330.16;5182854;28;20263;-76
2022/08/17 04:34:23;;;;;;;10.32;9.43;;;15.20;99.90;;;16.11;86.89;97343.16;5184021;28;20250;-77
2022/08/17 04:36:57;;;;;;;10.18;9.45;;;15.30;99.90;;;16.12;87.19;97335.47;5184994;28;20318;-77
2022/08/17 04:39:30;;;;;;;9.90;9.20;;;15.30;99.90;;;16.14;86.54;97344.13;5185408;28;20207;-76
2022/08/17 04:42:15;;;;;;;10.07;9.38;;;15.30;99.90;;;16.11;86.41;97351.78;5184705;28;20746;-76
2022/08/17 04:44:49;;;;;;;9.82;9.02;;;15.20;99.90;;;16.07;86.10;97351.66;5182771;28;20222;-76
2022/08/17 04:47:23;;;;;;;10.18;9.40;;;15.10;99.90;;;15.99;86.45;97351.44;5182171;28;20226;-76
2022/08/17 04:49:56;;;;;;;10.15;9.25;;;15.00;99.90;;;15.96;86.66;97354.78;5185480;28;20648;-77
2022/08/17 04:52:29;;;;;;;9.23;8.63;;;15.00;99.90;;;15.97;86.84;97360.84;5185620;28;20238;-78
2022/08/17 04:55:15;;;;;;;9.55;8.85;;;15.10;99.90;;;16.04;86.66;97355.00;5179255;28;20226;-77
2022/08/17 04:57:48;;;;;;;9.73;9.00;;;15.20;99.90;;;15.96;87.04;97364.22;5180032;28;20207;-76
2022/08/17 05:00:24;;;;;;;10.00;9.23;;;15.10;99.90;;;15.98;87.40;97388.34;5184718;28;20254;-77
2022/08/17 05:02:59;;;;;;;10.95;10.07;;;15.20;99.90;;;15.99;87.08;97385.84;5182302;28;20213;-77
2022/08/17 05:05:35;;;;;;;11.27;10.48;;;15.20;99.90;;;16.13;86.66;97396.50;5184360;28;20258;-76
2022/08/17 05:08:09;;;;;;;11.68;10.65;;;15.30;99.90;;;16.17;86.36;97400.94;5184330;28;20245;-77
2022/08/17 05:10:43;;;;;;;10.48;9.63;;;15.40;99.90;;;16.09;86.20;97402.44;5184704;28;20725;-77
2022/08/17 05:13:21;;;;;;;10.68;9.88;;;15.30;99.90;;;16.07;86.67;97409.25;5185562;28;20272;-76
2022/08/17 05:15:58;;;;;;;11.55;10.65;;;15.40;99.90;;;16.12;86.23;97412.81;5187296;28;20221;-77
2022/08/17 05:18:33;;;;;;;11.20;10.40;;;15.40;99.90;;;16.26;85.98;97420.09;5185401;28;20194;-77
2022/08/17 05:21:06;;;;;;;11.45;10.65;;;15.50;99.90;;;16.37;86.05;97429.00;5184793;28;20712;-77
2022/08/17 05:23:40;;;;;;;10.45;9.70;;;15.50;99.90;;;16.47;85.24;97422.34;5180284;28;20664;-76
2022/08/17 05:26:21;;;;;;;10.50;9.80;;;15.60;99.90;;;16.73;84.82;97425.63;5184165;28;20198;-77
2022/08/17 05:29:00;;;;;;;10.20;9.40;;;15.90;99.90;;;17.10;83.52;97420.56;5183781;28;20202;-76
2022/08/17 05:31:35;;;;;;;10.35;9.45;;;16.20;99.90;;;17.67;82.71;97418.44;5184319;28;20203;-77
2022/08/17 05:34:10;;;;;;;9.40;8.70;;;16.60;99.90;;;18.38;79.46;97405.28;5185156;28;20214;-76
2022/08/17 05:36:43;;;;;;;9.50;8.80;;;17.30;99.90;;;19.13;75.75;97398.84;5191283;28;20197;-76
2022/08/17 05:39:17;;;;;;;10.15;9.45;;;18.10;99.90;;;19.61;71.61;97402.16;5180674;28;20268;-77
2022/08/17 05:41:50;;;;;;;9.68;8.88;;;18.70;99.90;;;19.91;70.30;97396.53;5186085;28;20643;-77
2022/08/17 05:44:23;;;;;;;9.10;8.18;;;18.90;99.90;;;20.06;68.85;97401.91;5184419;28;20289;-77
2022/08/17 05:46:59;;;;;;;9.80;9.10;;;18.90;99.90;;;19.87;69.32;97399.94;5184898;28;20270;-77
2022/08/17 05:49:34;;;;;;;9.68;8.93;;;18.60;99.90;;;19.98;69.41;97398.34;5182821;28;20608;-77
2022/08/17 05:52:22;;;;;;;9.23;8.32;;;18.60;99.90;;;20.52;68.11;97405.03;5190388;28;20225;-76
2022/08/17 05:55:13;;;;;;;8.30;7.70;;;19.30;99.90;;;20.93;65.38;97396.78;5183349;28;20234;-77
2022/08/17 05:57:59;;;;;;;7.90;7.30;;;19.70;99.90;;;21.50;63.67;97392.06;5184775;28;20669;-76
2022/08/17 06:00:40;;;;;;;8.15;7.63;;;20.10;99.90;;;21.69;63.56;97390.41;5186064;28;20233;-76
2022/08/17 06:03:28;;;;;;;9.52;8.60;;;20.20;99.90;;;21.72;62.18;97398.22;5184673;28;20199;-76
2022/08/17 06:06:24;;;;;;;9.73;8.68;;;20.20;99.90;;;22.26;61.43;97392.47;5196846;28;20256;-77
2022/08/17 06:09:31;;;;;;;8.38;7.78;;;20.40;99.90;;;22.87;59.16;97389.09;5183343;28;20213;-76
2022/08/17 06:12:26;;;;;;;9.75;8.95;;;20.90;99.90;;;22.78;58.50;97398.63;5182386;28;20199;-77
2022/08/17 06:15:15;;;;;;;9.60;8.80;;;20.70;99.90;;;22.92;58.41;97397.81;5182024;28;20316;-77
2022/08/17 06:17:52;;;;;;;8.23;7.63;;;20.80;99.90;;;23.06;57.79;97396.94;5177175;28;21034;-77
2022/08/17 06:20:30;;;;;;;8.55;7.85;;;21.00;99.90;;;23.45;57.27;97397.81;5174232;28;20203;-77
2022/08/17 06:23:10;;;;;;;8.60;7.75;;;21.50;99.90;;;23.66;56.33;97409.94;5180035;28;20210;-78
2022/08/17 06:25:48;;;;;;;8.38;7.68;;;21.70;99.90;;;24.25;53.64;97417.63;5180941;28;20229;-77
2022/08/17 06:28:31;;;;;;;7.72;7.13;;;22.10;99.40;;;24.56;52.39;97427.97;5184581;28;20276;-77
2022/08/17 06:31:12;;;;;;;7.43;6.82;;;22.40;98.30;;;25.04;52.68;97425.91;5180403;28;20206;-77
2022/08/17 06:33:46;;;;;;;7.90;7.30;;;22.70;98.90;;;25.57;50.75;97428.97;5176461;28;20230;-77
2022/08/17 06:36:41;;;;;;;6.93;6.43;;;23.30;97.30;;;25.95;49.21;97440.84;5181608;28;20203;-78
2022/08/17 06:39:31;;;;;;;7.93;7.28;;;23.70;95.60;;;26.44;47.73;97454.25;5185839;28;20203;-79
2022/08/17 06:42:17;;;;;;;7.80;7.20;;;24.00;94.70;;;26.20;48.66;97450.16;5187007;28;20228;-78
2022/08/17 06:45:15;;;;;;;8.05;7.13;;;24.10;95.20;;;26.11;49.30;97455.50;5182391;28;20225;-78
2022/08/17 06:47:59;;;;;;;7.43;6.85;;;24.00;95.20;;;26.32;49.05;97449.16;5183079;28;21015;-78
2022/08/17 06:50:37;;;;;;;7.70;7.07;;;24.10;95.50;;;26.60;48.57;97454.09;5183753;28;20202;-78
2022/08/17 06:53:20;;;;;;;7.68;7.05;;;24.50;94.30;;;26.97;47.97;97446.56;5185234;28;20198;-79
2022/08/17 06:56:01;;;;;;;7.40;6.80;;;24.80;93.90;;;27.29;46.08;97445.22;5185833;28;20308;-78
2022/08/17 06:58:36;;;;;;;7.65;7.05;;;25.20;92.50;;;27.57;46.28;97448.25;5192054;28;20580;-78
2022/08/17 07:01:17;;;;;;;7.57;6.97;;;25.30;92.90;;;27.64;47.59;97444.63;5184074;28;20222;-78
2022/08/17 07:03:56;;;;;;;7.90;7.20;;;25.40;93.70;;;27.59;45.50;97449.97;5193597;28;20233;-78
2022/08/17 07:06:36;;;;;;;7.47;6.88;;;25.50;91.90;;;27.66;46.37;97445.47;5186467;28;20225;-78
2022/08/17 07:09:18;;;;;;;7.68;7.00;;;25.50;92.30;;;27.71;46.32;97443.63;5177707;28;20752;-78
2022/08/17 07:11:56;;;;;;;7.10;6.50;;;25.60;91.90;;;27.97;45.18;97439.69;5189959;28;20248;-79
2022/08/17 07:14:36;;;;;;;7.20;6.70;;;25.80;91.60;;;28.07;45.81;97434.22;5190493;28;20221;-78
2022/08/17 07:17:12;;;;;;;6.85;6.18;;;26.10;91.50;;;28.00;45.22;97431.75;5189441;28;20247;-78
2022/08/17 07:19:49;;;;;;;6.25;5.75;;;26.00;91.10;;;28.36;45.42;97431.88;5188745;28;20198;-78
2022/08/17 07:22:35;;;;;;;6.15;5.63;;;26.30;91.20;;;28.56;43.63;97424.50;5185421;28;20249;-78
2022/08/17 07:25:30;;;;;;;6.45;5.85;;;26.60;89.20;;;28.57;43.25;97423.59;5184771;28;20225;-78
2022/08/17 07:28:06;;;;;;;6.13;5.53;;;26.60;88.20;;;28.53;42.30;97421.94;5187022;28;20205;-78
2022/08/17 07:30:53;;;;;;;6.80;6.25;;;26.30;87.90;;;28.67;42.82;97417.25;5189247;28;20248;-78
2022/08/17 07:33:35;;;;;;;6.75;6.25;;;26.50;88.60;;;29.00;42.96;97419.97;5179392;28;20224;-78
2022/08/17 07:36:25;;;;;;;5.97;5.47;;;26.60;89.30;;;29.36;42.15;97417.38;5185778;28;20198;-78
2022/08/17 07:39:03;;;;;;;6.40;5.95;;;26.80;88.60;;;29.45;41.04;97411.91;5183953;28;20248;-78
2022/08/17 07:41:41;;;;;;;6.57;5.97;;;27.00;86.60;;;29.40;41.52;97416.41;5184594;28;20213;-79
2022/08/17 07:44:47;;;;;;;7.00;6.40;;;27.00;87.90;;;29.74;41.29;97424.34;5178666;28;20218;-78
2022/08/17 07:50:27;;;;;;;6.78;6.28;;;27.10;85.40;;;29.70;39.44;97406.84;5184365;28;20234;-78
2022/08/17 07:53:17;;;;;;;6.55;5.97;;;27.40;83.40;;;29.59;40.06;97412.41;5183823;28;20190;-78
2022/08/17 07:55:52;;;;;;;6.55;6.10;;;27.50;83.00;;;29.80;40.11;97405.72;5182831;28;20343;-78
2022/08/17 07:58:25;;;;;;;6.97;6.32;;;28.00;82.30;;;30.16;39.22;97415.28;5179555;28;20252;-78
2022/08/17 08:01:11;;;;;;;6.38;5.88;;;28.60;79.80;;;30.49;38.41;97413.47;5193160;28;20264;-78
2022/08/17 08:03:46;;;;;;;6.50;5.90;;;28.90;78.80;;;30.34;36.68;97417.44;5185868;28;20234;-78
2022/08/17 08:06:26;;;;;;;6.32;5.82;;;28.80;75.10;;;30.42;37.86;97412.81;5185418;28;20198;-78
2022/08/17 08:09:00;;;;;;;6.40;5.80;;;28.60;77.70;;;30.33;38.83;97412.19;5189687;28;20304;-78
2022/08/17 08:11:36;;;;;;;6.00;5.40;;;28.70;78.20;;;30.35;38.02;97416.50;5191887;28;20240;-78
2022/08/17 08:14:28;;;;;;;5.75;5.25;;;28.70;76.90;;;30.41;36.76;97416.31;5185991;28;20214;-78
2022/08/17 08:17:07;;;;;;;5.15;4.75;;;28.70;75.70;;;30.55;36.98;97420.34;5184415;28;20280;-78
2022/08/17 08:19:41;;;;;;;5.57;5.18;;;29.10;75.20;;;30.61;37.54;97412.22;5187877;28;20689;-78
2022/08/17 08:22:25;;;;;;;5.82;5.40;;;29.30;75.40;;;30.64;37.18;97417.41;5195219;28;20666;-78
2022/08/17 08:25:14;;;;;;;5.57;5.13;;;29.20;74.70;;;30.74;36.89;97424.16;5193215;28;20244;-78
2022/08/17 08:28:02;;;;;;;6.50;5.38;;;29.40;74.00;;;30.77;37.05;97418.78;5192477;28;20209;-78
2022/08/17 08:30:43;;;;;;;5.05;4.55;;;29.40;73.80;;;30.88;36.84;97414.06;5184188;28;20266;-78
2022/08/17 08:33:41;;;;;;;6.57;5.38;;;29.40;74.20;;;31.05;37.10;97412.66;5183621;28;20242;-77
2022/08/17 08:36:37;;;;;;;5.70;5.20;;;29.70;74.70;;;31.09;36.52;97419.56;5182500;28;20241;-79
2022/08/17 08:39:44;;;;;;;5.35;4.95;;;29.80;73.60;;;30.95;36.54;97426.16;5181884;28;20246;-78
2022/08/17 08:42:26;;;;;;;5.22;4.82;;;29.70;73.50;;;31.28;36.16;97412.78;5189559;28;20225;-78
2022/08/17 08:45:12;;;;;;;5.82;5.30;;;30.00;72.90;;;31.12;36.77;97422.97;5187800;28;20222;-78
2022/08/17 08:48:10;;;;;;;6.05;5.45;;;29.70;73.50;;;31.18;36.21;97408.69;5190621;28;20256;-78
2022/08/17 08:51:05;;;;;;;5.20;4.80;;;29.80;74.10;;;31.03;37.27;97406.56;5185930;28;20242;-78
2022/08/17 08:53:58;;;;;;;5.90;5.15;;;29.60;73.70;;;31.06;36.93;97414.41;5193522;28;20221;-78
2022/08/17 08:56:37;;;;;;;5.78;5.38;;;29.80;73.20;;;31.20;35.65;97417.44;5195702;28;20230;-79
2022/08/17 08:59:21;;;;;;;6.13;5.55;;;30.00;71.40;;;31.30;36.08;97421.50;5181593;28;20250;-78
2022/08/17 09:02:05;;;;;;;6.10;5.70;;;30.10;72.10;;;31.10;36.98;97423.94;5189871;28;20275;-78
2022/08/17 09:05:01;;;;;;;6.35;5.85;;;29.80;73.90;;;30.74;37.57;97424.16;5195702;28;20225;-78
2022/08/17 09:07:59;;;;;;;6.40;5.80;;;29.20;74.60;;;30.55;37.73;97415.06;5184746;28;20198;-78
2022/08/17 09:10:44;;;;;;;6.13;5.63;;;29.00;74.70;;;30.61;38.84;97412.22;5190431;28;20256;-78
2022/08/17 09:13:28;;;;;;;6.15;5.55;;;29.20;76.10;;;30.73;37.60;97406.56;5183608;28;20198;-78
2022/08/17 09:16:10;;;;;;;6.10;5.60;;;29.30;74.40;;;30.66;37.61;97415.59;5190292;28;20249;-78
2022/08/17 09:18:50;;;;;;;5.97;5.28;;;29.40;74.10;;;30.83;37.98;97413.34;5191606;28;20206;-78
2022/08/17 09:21:41;;;;;;;5.95;5.55;;;29.50;74.60;;;30.73;37.89;97417.13;5187945;28;20547;-78
2022/08/17 09:24:28;;;;;;;6.25;5.68;;;29.40;75.30;;;30.74;37.96;97424.16;5188718;28;20284;-78
2022/08/17 09:27:08;;;;;;;5.45;5.00;;;29.40;75.30;;;30.79;37.79;97430.19;5188409;28;20685;-78
2022/08/17 09:29:51;;;;;;;6.43;5.20;;;29.50;74.80;;;30.56;38.86;97432.63;5189992;28;20241;-78
2022/08/17 09:32:37;;;;;;;5.30;4.80;;;29.30;75.50;;;30.37;38.37;97434.94;5192214;28;20194;-78
2022/08/17 09:35:18;;;;;;;5.90;5.30;;;29.20;74.80;;;30.59;37.88;97446.59;5194863;28;20705;-78
2022/08/17 09:38:05;;;;;;;5.60;5.20;;;29.20;74.60;;;30.36;38.51;97449.91;5187237;28;20210;-78
2022/08/17 09:40:48;;;;;;;6.10;5.30;;;29.10;74.90;;;30.15;39.63;97446.06;5187220;28;20240;-78
2022/08/17 09:43:34;;;;;;;6.05;5.55;;;28.80;77.10;;;30.21;39.70;97455.56;5182503;28;20272;-78
2022/08/17 09:46:15;;;;;;;6.35;5.78;;;28.80;77.10;;;30.00;39.65;97457.03;5191027;28;20260;-78
2022/08/17 09:48:56;;;;;;;6.55;5.60;;;28.60;77.10;;;30.12;39.54;97467.25;5190188;28;20264;-78
2022/08/17 09:51:35;;;;;;;6.13;5.63;;;28.80;76.40;;;29.92;39.39;97474.81;5186221;28;20206;-78
2022/08/17 09:54:18;;;;;;;6.25;5.65;;;28.50;76.80;;;29.72;39.64;97472.72;5186325;28;20217;-78
2022/08/17 09:57:26;;;;;;;6.63;6.00;;;28.30;77.00;;;29.51;41.11;97468.81;5178808;28;20194;-78
2022/08/17 10:00:15;;;;;;;6.40;5.88;;;28.10;78.10;;;29.47;41.53;97475.91;5185586;28;20681;-78
2022/08/17 10:03:07;;;;;;;6.95;6.35;;;28.20;79.00;;;29.42;41.08;97475.19;5192132;28;20703;-78
2022/08/17 10:05:46;;;;;;;8.13;6.05;;;28.00;78.20;;;29.19;41.65;97479.22;5193957;28;20205;-77
2022/08/17 10:08:33;;;;;;;6.30;5.70;;;27.90;78.70;;;29.00;41.77;97475.25;5184812;28;20194;-78
2022/08/17 10:11:23;;;;;;;5.80;5.22;;;27.70;79.30;;;29.15;42.01;97474.06;5201566;28;20202;-78
2022/08/17 10:14:15;;;;;;;6.40;5.90;;;27.80;79.50;;;28.97;41.56;97477.97;5185725;28;20220;-78
2022/08/17 10:17:17;;;;;;;5.82;5.40;;;27.80;78.80;;;29.13;41.34;97474.13;5191872;28;20721;-78
2022/08/17 10:20:00;;;;;;;6.68;5.35;;;27.90;77.90;;;29.10;41.24;97470.66;5188586;28;20210;-78
2022/08/17 10:28:38;;;;;;;5.90;5.40;;;28.10;77.40;;;29.21;40.59;97473.06;5185944;28;20203;-78
2022/08/17 10:31:23;;;;;;;5.45;5.05;;;28.00;77.00;;;29.24;40.30;97481.75;5183900;28;20277;-78
2022/08/17 10:34:38;;;;;;;5.43;4.97;;;28.00;77.10;;;29.13;40.85;97495.19;5185414;28;20256;-78
2022/08/17 10:38:04;;;;;;;5.78;5.28;;;27.90;77.30;;;28.98;40.05;97484.94;5185940;28;20252;-78
2022/08/17 10:40:46;;;;;;;5.57;5.18;;;27.70;76.70;;;29.10;40.55;97497.00;5176893;28;20209;-78
2022/08/17 10:43:33;;;;;;;5.32;4.95;;;27.80;77.80;;;28.84;40.96;97492.28;5194851;28;20249;-78
2022/08/17 10:46:19;;;;;;;5.43;4.90;;;27.70;77.60;;;28.64;40.87;97503.22;5187061;28;20194;-78
2022/08/17 10:49:33;;;;;;;4.97;4.57;;;27.40;77.60;;;28.64;41.00;97504.09;5192774;28;20252;-79
2022/08/17 10:52:48;;;;;;;5.50;4.90;;;27.30;77.50;;;28.32;40.36;97514.38;5159929;28;20194;-79
2022/08/17 10:55:24;;;;;;;5.07;4.78;;;27.00;76.90;;;28.10;40.92;97519.16;5180565;28;20701;-77
2022/08/17 10:58:19;;;;;;;4.72;4.43;;;26.90;77.30;;;28.04;41.57;97520.13;5185470;28;20205;-78
2022/08/17 11:00:58;;;;;;;5.13;4.72;;;26.80;78.20;;;27.95;41.70;97525.56;5184582;28;20206;-78
2022/08/17 11:03:32;;;;;;;5.53;5.10;;;26.80;78.70;;;27.75;42.64;97529.34;5190431;28;20229;-78
2022/08/17 11:06:17;;;;;;;6.03;5.50;;;26.60;79.20;;;27.60;43.00;97542.75;5184827;28;20194;-78
2022/08/17 11:09:26;;;;;;;5.78;5.15;;;26.50;79.90;;;27.50;45.08;97549.03;5196546;28;20236;-77
2022/08/17 11:12:28;;;;;;;5.72;5.22;;;26.40;82.80;;;27.22;47.37;97548.59;5184757;28;20224;-78
2022/08/17 11:15:18;;;;;;;5.43;5.07;;;26.20;86.10;;;27.15;48.23;97548.66;5192667;28;20624;-78
2022/08/17 11:18:24;;;;;;;9.93;6.80;;;26.00;87.60;;;26.24;58.44;97540.09;5190078;28;20243;-79
2022/08/17 11:21:55;;;;;;;11.02;8.05;;;25.50;96.40;;;25.05;72.24;97532.25;5185293;28;20702;-77
2022/08/17 11:24:34;;;;;;;9.27;8.35;;;24.70;99.90;;;24.42;79.88;97534.25;5154432;28;20260;-76
2022/08/17 11:27:23;;;;;;;9.23;8.32;;;23.80;99.90;;;23.88;81.30;97531.75;5189074;28;20276;-76
2022/08/17 11:30:00;;;;;;;9.60;8.70;;;23.30;99.90;;;23.56;84.80;97531.75;5190470;28;20279;-76
2022/08/17 11:32:40;;;;;;;10.07;9.07;;;22.90;99.90;;;23.33;86.49;97532.59;5183532;28;20212;-76
2022/08/17 11:35:38;;;;;;;12.57;9.93;;;22.60;99.90;;;23.20;88.91;97541.25;5178414;28;20214;-76
2022/08/17 11:38:24;;;;;;;11.23;10.13;;;22.70;99.90;;;23.26;93.41;97536.03;5190558;28;20252;-76